Aérodrome :
LOGIN :

S'inscrire | Disclaimer

   EN    FR    IT 

 










Légende :    VFR   VFR Marginal   IFR   IFR Intensif   IFR Très Intensif
Visi : 
Plafond : 
>= 8 km
>= 3000ft
5 à 8 km
1000 à 3000 ft
1500m à 5 km
500 à 1000 ft
800 à 1500m
200 à 500 ft
< 800m
< 200 ft
Symboles :   Orages  Brouillard  Fortes neiges  Fortes précipitations  Vent > 20 kt
SIGMETs :   Divers  Orages  Givrage  Turbulence  Onde Orograph.  Cendres Volcan.







- Altitude de l'aérodrome : 468 ft
- Code IATA : GRO


LEGE - Girona Costa Brava

DERNIER METAR :
  • 261200Z 22003G13KT 9999 FEW025 SCT045 27/14 Q1014

METARs EXPIRÉS :
  • 261130Z 05005KT 320V100 9999 FEW025 SCT045 25/15 Q1014
  • 261100Z 09001KT 9999 FEW020 SCT040 25/14 Q1014
  • 261030Z 00000KT 9999 FEW020 SCT038 24/14 Q1014
  • 261000Z VRB01KT 9999 FEW020 SCT035 24/14 Q1014
  • 260930Z 06001KT 9999 FEW020 24/13 Q1014

TAF TAF LEGE
Valide du 26 à 12h jusqu'au 27 à 12h UTC


261100Z 2612/2712 18010KT 9999 SCT025 TX28/2613Z TN18/2706Z
BECMG 2618/2620 VRB04KT
BECMG 2710/2712 18010KT
Pas de NOTAMs connus pour ce terrain.



MET'MAP, la Météo Aéronautique d'un coup d'oeil ! - Copyright ORBIFLY Décembre 2007 - Disclaimer

ORBIFLY MET'MAP TEAM :

Programmation & Développement : Alexandra Zaïnal
Conception & Développement : Baudouin d'Aumeries
Co-Programmation & Développement : Marc-Olivier Méhu
Soutien technique & logistique : Manuel Goepfert

Contact : metmap@orbifly.com




SOURCES & CREDITS :

   NOAA